createdAt,value
2023-07-20T00:00:56.735Z,95.55
2023-07-20T00:03:20.193Z,95.38
2023-07-20T00:05:25.924Z,95.65
2023-07-20T00:07:27.480Z,95.96
2023-07-20T00:09:29.098Z,95.14
2023-07-20T00:11:30.750Z,94.90
2023-07-20T00:13:32.224Z,95.50
2023-07-20T00:15:33.836Z,95.35
2023-07-20T00:17:35.274Z,94.81
2023-07-20T00:19:36.754Z,94.82
2023-07-20T00:21:41.303Z,95.20
2023-07-20T00:23:42.734Z,94.30
2023-07-20T00:25:44.184Z,94.88
2023-07-20T00:27:45.632Z,94.68
2023-07-20T00:29:47.206Z,94.59
2023-07-20T00:31:51.394Z,94.97
2023-07-20T00:33:53.436Z,95.86
2023-07-20T00:35:54.891Z,94.50
2023-07-20T00:37:56.345Z,96.14
2023-07-20T00:39:57.999Z,96.51
2023-07-20T00:41:59.434Z,95.86
2023-07-20T00:44:00.989Z,95.44
2023-07-20T00:46:04.043Z,96.25
2023-07-20T00:48:07.241Z,95.82
2023-07-20T00:50:10.466Z,96.11
2023-07-20T00:52:13.703Z,96.30
2023-07-20T00:54:16.159Z,95.81
2023-07-20T00:56:18.205Z,96.41
2023-07-20T00:58:20.044Z,95.72
2023-07-20T01:00:21.550Z,95.71
2023-07-20T01:02:23.089Z,96.63
2023-07-20T01:04:24.633Z,96.59
2023-07-20T01:06:36.418Z,97.04
2023-07-20T01:08:48.925Z,96.67
2023-07-20T01:11:06.613Z,96.37
2023-07-20T01:13:10.600Z,96.66
2023-07-20T01:15:13.172Z,97.02
2023-07-20T01:17:14.874Z,96.38
2023-07-20T01:19:16.515Z,96.32
2023-07-20T01:21:25.914Z,96.49
2023-07-20T01:23:27.592Z,96.63
2023-07-20T01:25:52.293Z,96.55
2023-07-20T01:27:59.997Z,97.67
2023-07-20T01:30:35.240Z,96.59
2023-07-20T01:32:38.476Z,96.43
2023-07-20T01:34:41.833Z,97.08
2023-07-20T01:36:45.196Z,96.96
2023-07-20T01:38:47.678Z,96.68
2023-07-20T01:40:49.522Z,96.93
2023-07-20T01:42:52.898Z,97.33
2023-07-20T01:44:54.612Z,97.68
2023-07-20T01:46:56.068Z,96.39
2023-07-20T01:48:58.204Z,96.43
2023-07-20T01:50:59.628Z,97.33
2023-07-20T01:53:01.936Z,96.87
2023-07-20T01:55:03.685Z,96.30
2023-07-20T01:57:05.609Z,95.44
2023-07-20T01:59:07.069Z,96.21
2023-07-20T02:01:08.642Z,96.54
2023-07-20T02:03:10.338Z,96.19
2023-07-20T02:05:11.885Z,95.75
2023-07-20T02:07:13.404Z,95.90
2023-07-20T02:09:14.826Z,97.36
2023-07-20T02:11:16.281Z,97.39
2023-07-20T02:13:17.828Z,97.63
2023-07-20T02:15:19.957Z,97.04
2023-07-20T02:17:21.457Z,96.75
2023-07-20T02:19:23.020Z,96.71
2023-07-20T02:21:24.513Z,96.56
2023-07-20T02:23:25.920Z,96.65
2023-07-20T02:25:27.427Z,96.42
2023-07-20T02:27:28.899Z,96.64
2023-07-20T02:29:30.343Z,95.42
2023-07-20T02:31:32.062Z,95.56
2023-07-20T02:33:33.670Z,95.97
2023-07-20T02:35:35.112Z,96.37
2023-07-20T02:37:37.982Z,95.89
2023-07-20T02:39:40.249Z,95.47
2023-07-20T02:41:42.696Z,96.45
2023-07-20T02:43:44.144Z,96.64
2023-07-20T02:45:48.203Z,95.76
2023-07-20T02:47:49.698Z,95.95
2023-07-20T02:49:51.239Z,95.89
2023-07-20T02:51:52.685Z,96.33
2023-07-20T02:53:54.174Z,96.79
2023-07-20T02:55:55.618Z,96.43
2023-07-20T02:57:57.107Z,97.18
2023-07-20T02:59:58.576Z,97.06
2023-07-20T03:02:00.020Z,97.42
2023-07-20T03:04:01.603Z,97.57
2023-07-20T03:06:03.370Z,97.24
2023-07-20T03:08:07.210Z,97.82
2023-07-20T03:10:10.466Z,97.59
2023-07-20T03:12:11.945Z,97.56
2023-07-20T03:14:13.817Z,98.31
2023-07-20T03:16:18.895Z,97.76
2023-07-20T03:18:20.528Z,97.80
2023-07-20T03:20:21.952Z,98.07
2023-07-20T03:22:23.469Z,97.70
2023-07-20T03:24:25.081Z,97.87
2023-07-20T03:26:26.590Z,97.35
2023-07-20T03:28:28.090Z,96.88
2023-07-20T03:30:29.540Z,97.48
2023-07-20T03:32:31.010Z,97.79
2023-07-20T03:34:32.963Z,96.60
2023-07-20T03:36:34.423Z,97.32
2023-07-20T03:38:35.941Z,97.36
2023-07-20T03:40:37.398Z,97.86
2023-07-20T03:42:42.378Z,97.39
2023-07-20T03:44:43.867Z,96.69
2023-07-20T03:46:45.401Z,96.31
2023-07-20T03:48:46.892Z,98.50
2023-07-20T03:50:50.028Z,96.93
2023-07-20T03:52:51.515Z,96.75
2023-07-20T03:54:52.970Z,96.04
2023-07-20T03:56:54.377Z,95.82
2023-07-20T03:58:55.803Z,97.15
2023-07-20T04:00:58.380Z,98.15
2023-07-20T04:03:00.366Z,97.61
2023-07-20T04:05:01.880Z,97.05
2023-07-20T04:07:03.413Z,96.01
2023-07-20T04:09:06.388Z,97.13
2023-07-20T04:11:07.894Z,97.12
2023-07-20T04:13:09.344Z,97.75
2023-07-20T04:15:11.054Z,97.50
2023-07-20T04:17:14.340Z,97.62
2023-07-20T04:19:15.828Z,97.98
2023-07-20T04:21:17.283Z,96.95
2023-07-20T04:23:18.855Z,98.11
2023-07-20T04:25:20.399Z,98.25
2023-07-20T04:27:21.845Z,98.55
2023-07-20T04:29:23.326Z,97.91
2023-07-20T04:31:24.806Z,98.53
2023-07-20T04:33:30.042Z,98.10
2023-07-20T04:35:54.769Z,96.92
2023-07-20T04:37:56.481Z,96.33
2023-07-20T04:39:57.926Z,98.33
2023-07-20T04:41:59.378Z,97.31
2023-07-20T04:44:00.850Z,96.48
2023-07-20T04:46:02.367Z,97.61
2023-07-20T04:48:04.338Z,97.16
2023-07-20T04:50:06.477Z,97.58
2023-07-20T04:52:08.382Z,98.08
2023-07-20T04:54:10.455Z,98.32
2023-07-20T04:56:11.955Z,95.14
2023-07-20T04:58:13.396Z,96.34
2023-07-20T05:00:15.386Z,95.55
2023-07-20T05:02:16.816Z,96.30
2023-07-20T05:04:19.177Z,95.47
2023-07-20T05:06:21.073Z,96.76
2023-07-20T05:08:23.447Z,96.82
2023-07-20T05:10:25.211Z,96.45
2023-07-20T05:12:26.900Z,95.96
2023-07-20T05:14:28.464Z,95.43
2023-07-20T05:16:29.946Z,94.49
2023-07-20T05:18:32.377Z,95.51
2023-07-20T05:20:34.432Z,93.96
2023-07-20T05:22:35.957Z,94.26
2023-07-20T05:24:37.420Z,93.59
2023-07-20T05:26:39.247Z,94.25
2023-07-20T05:28:40.765Z,95.30
2023-07-20T05:30:42.253Z,94.03
2023-07-20T05:32:43.745Z,93.62
2023-07-20T05:34:45.310Z,93.56
2023-07-20T05:36:46.757Z,90.50
2023-07-20T05:38:48.329Z,91.54
2023-07-20T05:40:49.806Z,91.20
2023-07-20T05:42:53.255Z,91.42
2023-07-20T05:44:56.355Z,92.61
2023-07-20T05:46:58.646Z,92.02
2023-07-20T05:49:00.293Z,90.42
2023-07-20T05:51:01.799Z,90.79
2023-07-20T05:53:03.266Z,89.81
2023-07-20T05:55:05.081Z,90.79
2023-07-20T05:57:06.796Z,90.80
2023-07-20T05:59:08.275Z,90.88
2023-07-20T06:01:09.823Z,90.54
2023-07-20T06:03:11.468Z,90.43
2023-07-20T06:05:13.255Z,90.52
2023-07-20T06:07:14.765Z,91.87
2023-07-20T06:09:16.321Z,91.86
2023-07-20T06:11:18.402Z,92.03
2023-07-20T06:13:19.979Z,89.40
2023-07-20T06:15:26.931Z,89.23
2023-07-20T06:17:28.894Z,89.58
2023-07-20T06:19:30.388Z,90.97
2023-07-20T06:21:31.839Z,89.67
2023-07-20T06:23:33.596Z,89.77
2023-07-20T06:25:35.096Z,90.69
2023-07-20T06:27:36.531Z,86.54
2023-07-20T06:29:37.967Z,84.73
2023-07-20T06:31:39.591Z,86.27
2023-07-20T06:33:41.196Z,86.68
2023-07-20T06:35:44.108Z,86.30
2023-07-20T06:37:45.586Z,86.20
2023-07-20T06:41:53.256Z,85.99
2023-07-20T06:43:59.341Z,86.19
2023-07-20T06:46:01.067Z,86.14
2023-07-20T06:48:03.294Z,84.69
2023-07-20T06:50:05.188Z,85.88
2023-07-20T06:52:06.963Z,85.52
2023-07-20T06:54:08.433Z,84.49
2023-07-20T06:56:09.909Z,85.98
2023-07-20T06:58:12.837Z,84.73
2023-07-20T07:00:14.663Z,84.57
2023-07-20T07:02:16.162Z,86.93
2023-07-20T07:04:17.682Z,83.15
2023-07-20T07:06:19.245Z,84.03
2023-07-20T07:08:20.757Z,84.69
2023-07-20T07:10:22.255Z,83.59
2023-07-20T07:12:23.728Z,83.93
2023-07-20T07:14:26.547Z,83.38
2023-07-20T07:16:29.903Z,82.53
2023-07-20T07:18:32.025Z,81.52
2023-07-20T07:20:33.551Z,81.26
2023-07-20T07:22:35.082Z,79.44
2023-07-20T07:24:37.115Z,80.47
2023-07-20T07:26:38.580Z,80.03
2023-07-20T07:28:40.153Z,81.17
2023-07-20T07:30:41.812Z,79.54
2023-07-20T07:32:43.427Z,78.29
2023-07-20T07:34:47.447Z,78.35
2023-07-20T07:36:48.933Z,78.18
2023-07-20T07:39:31.571Z,77.32
2023-07-20T07:41:12.170Z,77.18
2023-07-20T07:43:14.953Z,74.94
2023-07-20T07:45:17.632Z,75.01
2023-07-20T07:47:19.105Z,72.88
2023-07-20T07:49:20.572Z,74.51
2023-07-20T07:51:22.079Z,76.06
2023-07-20T07:53:23.617Z,71.17
2023-07-20T07:55:26.721Z,74.25
2023-07-20T07:57:28.201Z,74.38
2023-07-20T07:59:29.861Z,74.31
2023-07-20T08:01:31.413Z,74.69
2023-07-20T08:03:32.883Z,72.22
2023-07-20T08:05:36.001Z,71.74
2023-07-20T08:07:37.922Z,74.27
2023-07-20T08:09:39.371Z,72.95
2023-07-20T08:11:41.018Z,72.85
2023-07-20T08:13:42.710Z,71.88
2023-07-20T08:15:50.710Z,73.55
2023-07-20T08:17:53.305Z,75.44
2023-07-20T08:19:55.009Z,76.43
2023-07-20T08:21:56.439Z,75.54
2023-07-20T08:23:57.920Z,77.68
2023-07-20T08:25:59.569Z,77.14
2023-07-20T08:28:02.035Z,78.67
2023-07-20T08:30:05.485Z,77.85
2023-07-20T08:32:07.458Z,79.47
2023-07-20T08:34:20.337Z,79.35
2023-07-20T08:36:27.570Z,78.99
2023-07-20T08:38:29.225Z,79.15
2023-07-20T08:40:31.110Z,79.18
2023-07-20T08:42:32.859Z,80.13
2023-07-20T08:44:35.338Z,78.64
2023-07-20T08:46:39.453Z,78.96
2023-07-20T08:48:43.258Z,77.28
2023-07-20T08:50:46.759Z,76.73
2023-07-20T08:52:49.539Z,75.70
2023-07-20T08:54:53.497Z,75.77
2023-07-20T08:56:55.854Z,73.70
2023-07-20T08:58:58.042Z,72.16
2023-07-20T09:01:02.605Z,70.50
2023-07-20T09:03:06.014Z,69.57
2023-07-20T09:05:11.012Z,68.46
2023-07-20T09:07:13.441Z,70.13
2023-07-20T09:09:14.902Z,66.51
2023-07-20T09:11:16.364Z,67.19
2023-07-20T09:13:18.201Z,65.58
2023-07-20T09:15:20.890Z,64.81
2023-07-20T09:17:26.700Z,67.75
2023-07-20T09:19:28.188Z,66.56
2023-07-20T09:21:31.595Z,66.76
2023-07-20T09:23:42.268Z,64.71
2023-07-20T09:25:43.932Z,63.66
2023-07-20T09:27:47.548Z,65.36
2023-07-20T09:29:52.613Z,64.75
2023-07-20T09:32:04.759Z,63.12
2023-07-20T09:34:06.591Z,64.43
2023-07-20T09:36:56.892Z,66.88
2023-07-20T09:39:05.100Z,70.00
2023-07-20T09:40:55.985Z,68.42
2023-07-20T09:45:10.435Z,67.66
2023-07-20T09:47:11.876Z,68.25
2023-07-20T09:51:19.232Z,65.31
2023-07-20T09:53:21.487Z,61.10
2023-07-20T09:55:25.289Z,61.90
2023-07-20T09:57:27.313Z,63.03
2023-07-20T09:59:28.762Z,61.75
2023-07-20T10:03:38.345Z,63.58
2023-07-20T10:05:47.341Z,62.79
2023-07-20T10:07:51.427Z,60.90
2023-07-20T10:09:54.794Z,57.98
2023-07-20T10:12:11.490Z,56.95
2023-07-20T10:14:21.623Z,57.51
2023-07-20T10:16:29.177Z,59.69
2023-07-20T10:18:36.020Z,60.26
2023-07-20T10:21:43.591Z,62.83
2023-07-20T10:23:05.128Z,63.52
2023-07-20T10:25:08.068Z,61.53
2023-07-20T10:27:10.269Z,61.52
2023-07-20T10:29:13.432Z,59.30
2023-07-20T10:31:16.676Z,59.81
2023-07-20T10:33:20.374Z,56.01
2023-07-20T10:35:21.906Z,59.46
2023-07-20T10:37:49.390Z,60.37
2023-07-20T10:39:52.687Z,56.79
2023-07-20T10:42:11.182Z,58.91
2023-07-20T10:44:14.427Z,57.54
2023-07-20T10:46:16.207Z,59.42
2023-07-20T10:48:20.849Z,58.94
2023-07-20T10:50:24.272Z,57.85
2023-07-20T10:52:25.812Z,62.93
2023-07-20T10:54:27.203Z,58.35
2023-07-20T10:56:31.951Z,52.43
2023-07-20T10:58:34.740Z,58.51
2023-07-20T11:00:36.768Z,51.69
2023-07-20T11:02:45.526Z,51.67
2023-07-20T11:04:48.837Z,53.42
2023-07-20T11:06:56.760Z,56.42
2023-07-20T11:09:16.970Z,52.63
2023-07-20T11:11:32.991Z,51.92
2023-07-20T11:13:35.436Z,56.14
2023-07-20T11:15:58.746Z,51.65
2023-07-20T11:18:20.082Z,53.18
2023-07-20T11:20:23.476Z,52.70
2023-07-20T11:22:25.115Z,53.49
2023-07-20T11:24:26.653Z,54.21
2023-07-20T11:26:28.135Z,54.94
2023-07-20T11:28:31.452Z,52.13
2023-07-20T11:30:34.890Z,50.30
2023-07-20T11:32:36.571Z,47.12
2023-07-20T11:34:38.361Z,48.85
2023-07-20T11:38:49.413Z,49.20
2023-07-20T11:40:51.361Z,50.61
2023-07-20T11:45:01.606Z,46.52
2023-07-20T11:47:11.010Z,46.14
2023-07-20T11:49:13.559Z,54.18
2023-07-20T11:51:18.560Z,47.20
2023-07-20T11:53:20.295Z,48.63
2023-07-20T11:55:22.006Z,48.00
2023-07-20T11:57:23.470Z,50.88
2023-07-20T11:59:25.242Z,48.38
2023-07-20T12:01:32.757Z,48.82
2023-07-20T12:03:34.295Z,49.96
2023-07-20T12:05:47.817Z,48.75
2023-07-20T12:07:57.495Z,47.98
2023-07-20T12:10:10.249Z,49.63
2023-07-20T12:12:14.524Z,47.20
2023-07-20T12:14:18.178Z,47.36
2023-07-20T12:16:21.201Z,46.09
2023-07-20T12:18:24.212Z,46.89
2023-07-20T12:20:37.921Z,47.01
2023-07-20T12:22:41.977Z,44.49
2023-07-20T12:24:43.570Z,44.93
2023-07-20T12:26:45.036Z,44.73
2023-07-20T12:28:46.535Z,44.00
2023-07-20T12:30:52.659Z,45.92
2023-07-20T12:32:54.089Z,45.16
2023-07-20T12:34:55.641Z,43.67
2023-07-20T12:36:57.122Z,43.59
2023-07-20T12:38:59.446Z,45.00
2023-07-20T12:41:04.404Z,43.64
2023-07-20T12:43:06.157Z,46.23
2023-07-20T12:45:08.283Z,47.44
2023-07-20T12:47:09.970Z,45.29
2023-07-20T12:49:11.395Z,44.16
2023-07-20T12:51:12.984Z,41.61
2023-07-20T12:53:14.513Z,42.90
2023-07-20T12:55:15.972Z,42.34
2023-07-20T12:57:17.408Z,41.56
2023-07-20T12:59:18.888Z,43.66
2023-07-20T13:01:20.333Z,41.58
2023-07-20T13:09:37.311Z,42.11
2023-07-20T13:11:38.818Z,42.93
2023-07-20T13:13:40.279Z,44.35
2023-07-20T13:15:44.060Z,45.41
2023-07-20T13:17:45.828Z,40.90
2023-07-20T13:19:48.407Z,45.11
2023-07-20T13:21:49.978Z,42.55
2023-07-20T13:23:51.449Z,43.18
2023-07-20T13:25:52.886Z,43.08
2023-07-20T13:27:54.328Z,41.68
2023-07-20T13:29:55.879Z,41.49
2023-07-20T13:31:57.402Z,40.74
2023-07-20T13:34:00.391Z,40.76
2023-07-20T13:36:08.872Z,40.86
2023-07-20T13:38:10.767Z,40.21
2023-07-20T13:40:14.230Z,40.68
2023-07-20T13:42:16.567Z,40.26
2023-07-20T13:44:22.732Z,42.41
2023-07-20T13:46:44.524Z,41.49
2023-07-20T13:48:46.205Z,41.08
2023-07-20T13:51:00.360Z,43.16
2023-07-20T13:55:09.205Z,42.38
2023-07-20T13:57:10.654Z,40.59
2023-07-20T14:01:13.607Z,44.20
2023-07-20T14:07:24.823Z,45.66
2023-07-20T14:09:26.532Z,43.41
2023-07-20T14:13:46.670Z,44.49
2023-07-20T14:15:49.638Z,44.84
2023-07-20T14:17:51.193Z,44.01
2023-07-20T14:19:54.441Z,44.95
2023-07-20T14:21:56.168Z,41.95
2023-07-20T14:24:01.715Z,46.06
2023-07-20T14:26:06.961Z,42.60
2023-07-20T14:28:09.065Z,42.80
2023-07-20T14:30:11.124Z,43.89
2023-07-20T14:32:12.688Z,46.14
2023-07-20T14:34:15.925Z,43.97
2023-07-20T14:38:20.283Z,45.98
2023-07-20T14:40:21.764Z,39.80
2023-07-20T14:42:23.310Z,42.68
2023-07-20T14:44:24.792Z,42.39
2023-07-20T14:46:26.440Z,38.67
2023-07-20T14:48:28.574Z,38.98
2023-07-20T14:50:30.141Z,38.91
2023-07-20T14:52:31.782Z,40.97
2023-07-20T14:54:33.226Z,40.33
2023-07-20T14:56:34.746Z,42.01
2023-07-20T14:58:36.327Z,44.24
2023-07-20T15:00:38.266Z,39.83
2023-07-20T15:02:42.275Z,34.95
2023-07-20T15:04:48.570Z,34.86
2023-07-20T15:06:50.027Z,37.05
2023-07-20T15:08:51.459Z,37.48
2023-07-20T15:10:52.908Z,38.00
2023-07-20T15:12:54.418Z,35.81
2023-07-20T15:15:07.182Z,40.72
2023-07-20T15:17:09.472Z,42.05
2023-07-20T15:19:12.600Z,39.31
2023-07-20T15:21:14.299Z,41.97
2023-07-20T15:23:15.843Z,38.15
2023-07-20T15:25:17.354Z,37.35
2023-07-20T15:27:18.835Z,31.19
2023-07-20T15:33:31.915Z,31.65
2023-07-20T15:35:33.377Z,31.71
2023-07-20T15:37:34.893Z,34.66
2023-07-20T15:39:36.403Z,32.72
2023-07-20T15:41:37.862Z,30.88
2023-07-20T15:43:39.594Z,32.66
2023-07-20T15:45:41.640Z,26.75
2023-07-20T15:47:43.194Z,23.94
2023-07-20T15:49:46.904Z,28.05
2023-07-20T15:51:48.699Z,28.39
2023-07-20T15:53:50.154Z,26.32
2023-07-20T15:55:57.383Z,22.58
2023-07-20T15:57:58.916Z,20.51
2023-07-20T16:00:04.162Z,20.89
2023-07-20T16:02:07.892Z,23.89
2023-07-20T16:04:10.000Z,27.99
2023-07-20T16:06:11.479Z,29.14
2023-07-20T16:08:12.912Z,31.18
2023-07-20T16:10:14.403Z,34.18
2023-07-20T16:12:15.909Z,33.48
2023-07-20T16:14:17.369Z,38.36
2023-07-20T16:16:19.189Z,37.20
2023-07-20T16:18:20.622Z,36.14
2023-07-20T16:20:22.267Z,39.01
2023-07-20T16:22:23.757Z,36.83
2023-07-20T16:24:25.221Z,37.11
2023-07-20T16:26:26.862Z,36.01
2023-07-20T16:28:28.450Z,38.10
2023-07-20T16:30:29.985Z,38.40
2023-07-20T16:32:31.531Z,36.33
2023-07-20T16:34:48.893Z,27.68
2023-07-20T16:39:27.122Z,24.16
2023-07-20T16:42:01.947Z,27.33
2023-07-20T16:45:44.367Z,21.17
2023-07-20T16:47:45.977Z,19.35
2023-07-20T16:49:47.482Z,20.05
2023-07-20T16:51:49.107Z,18.72
2023-07-20T16:53:50.593Z,20.43
2023-07-20T16:55:53.324Z,19.65
2023-07-20T16:57:54.786Z,19.95
2023-07-20T16:59:56.296Z,18.80
2023-07-20T17:01:57.771Z,18.91
2023-07-20T17:03:59.236Z,19.85
2023-07-20T17:06:00.894Z,19.35
2023-07-20T17:08:02.427Z,19.14
2023-07-20T17:10:04.497Z,18.76
2023-07-20T17:12:06.427Z,18.50
2023-07-20T17:14:09.260Z,18.17
2023-07-20T17:16:10.766Z,19.00
2023-07-20T17:18:12.327Z,18.52
2023-07-20T17:22:19.023Z,19.09
2023-07-20T17:30:33.789Z,21.18
2023-07-20T17:32:37.929Z,19.92
2023-07-20T17:34:41.246Z,21.18
2023-07-20T17:38:47.147Z,22.63
2023-07-20T17:40:48.729Z,23.85
2023-07-20T17:44:55.310Z,28.58
2023-07-20T17:49:03.527Z,31.61
2023-07-20T17:51:05.005Z,34.03
2023-07-20T17:53:06.476Z,34.36
2023-07-20T17:55:08.390Z,35.86
2023-07-20T17:57:09.806Z,36.53
2023-07-20T17:59:11.279Z,37.43
2023-07-20T18:01:12.805Z,38.14
2023-07-20T18:03:14.265Z,37.85
2023-07-20T18:05:15.827Z,38.20
2023-07-20T18:07:17.258Z,39.15
2023-07-20T18:09:18.707Z,40.76
2023-07-20T18:11:20.222Z,39.60
2023-07-20T18:13:21.676Z,40.98
2023-07-20T18:15:23.156Z,40.43
2023-07-20T18:17:26.267Z,40.22
2023-07-20T18:19:28.629Z,41.48
2023-07-20T18:21:30.118Z,41.53
2023-07-20T18:23:31.613Z,41.37
2023-07-20T18:25:33.035Z,42.75
2023-07-20T18:27:34.580Z,43.30
2023-07-20T18:29:35.990Z,43.64
2023-07-20T18:31:37.506Z,43.40
2023-07-20T18:33:39.825Z,43.88
2023-07-20T18:35:41.888Z,44.21
2023-07-20T18:37:43.544Z,44.62
2023-07-20T18:39:48.357Z,47.07
2023-07-20T18:41:49.800Z,45.32
2023-07-20T18:43:51.247Z,45.94
2023-07-20T18:45:55.946Z,47.02
2023-07-20T18:47:59.437Z,48.54
2023-07-20T18:50:01.716Z,48.71
2023-07-20T18:52:06.405Z,46.41
2023-07-20T18:54:07.905Z,47.85
2023-07-20T18:56:09.338Z,48.84
2023-07-20T18:58:10.794Z,50.07
2023-07-20T19:00:14.907Z,49.19
2023-07-20T19:02:16.435Z,51.00
2023-07-20T19:04:18.740Z,48.83
2023-07-20T19:06:20.206Z,49.22
2023-07-20T19:08:21.695Z,50.58
2023-07-20T19:10:23.160Z,50.94
2023-07-20T19:12:24.832Z,51.52
2023-07-20T19:14:26.355Z,51.75
2023-07-20T19:16:28.857Z,51.81
2023-07-20T19:18:31.137Z,51.64
2023-07-20T19:20:32.926Z,52.24
2023-07-20T19:22:35.184Z,52.24
2023-07-20T19:24:36.678Z,52.89
2023-07-20T19:26:38.143Z,52.44
2023-07-20T19:28:40.661Z,52.13
2023-07-20T19:30:42.152Z,52.81
2023-07-20T19:32:43.723Z,53.01
2023-07-20T19:34:45.167Z,53.10
2023-07-20T19:36:46.647Z,53.02
2023-07-20T19:38:48.514Z,53.57
2023-07-20T19:40:49.961Z,52.47
2023-07-20T19:42:51.540Z,52.75
2023-07-20T19:44:52.964Z,53.91
2023-07-20T19:46:56.055Z,53.50
2023-07-20T19:48:58.314Z,53.84
2023-07-20T19:50:59.890Z,55.37
2023-07-20T19:53:04.116Z,54.14
2023-07-20T19:55:23.318Z,55.38
2023-07-20T19:59:29.072Z,55.24
2023-07-20T20:05:40.496Z,53.80
2023-07-20T20:07:42.206Z,54.39
2023-07-20T20:09:43.731Z,54.53
2023-07-20T20:11:47.130Z,54.48
2023-07-20T20:13:51.332Z,55.12
2023-07-20T20:15:52.945Z,54.59
2023-07-20T20:17:56.140Z,54.77
2023-07-20T20:19:57.740Z,54.45
2023-07-20T20:22:02.217Z,55.05
2023-07-20T20:24:04.186Z,54.15
2023-07-20T20:26:05.688Z,55.20
2023-07-20T20:28:07.262Z,54.98
2023-07-20T20:30:09.414Z,55.79
2023-07-20T20:32:11.929Z,57.03
2023-07-20T20:34:13.373Z,57.00
2023-07-20T20:36:16.582Z,57.19
2023-07-20T20:38:24.594Z,56.35
2023-07-20T20:40:27.915Z,55.79
2023-07-20T20:42:29.382Z,55.54
2023-07-20T20:44:30.858Z,55.91
2023-07-20T20:46:32.313Z,56.25
2023-07-20T20:48:36.889Z,56.70
2023-07-20T20:50:45.741Z,56.96
2023-07-20T20:52:50.226Z,56.46
2023-07-20T20:54:51.661Z,57.99
2023-07-20T20:56:53.121Z,59.06
2023-07-20T20:58:54.561Z,60.59
2023-07-20T21:01:01.947Z,58.89
2023-07-20T21:03:03.766Z,59.29
2023-07-20T21:05:07.046Z,59.33
2023-07-20T21:07:08.449Z,60.12
2023-07-20T21:09:09.945Z,60.53
2023-07-20T21:11:11.557Z,59.54
2023-07-20T21:13:13.563Z,58.20
2023-07-20T21:15:15.494Z,59.98
2023-07-20T21:17:17.101Z,59.49
2023-07-20T21:19:18.564Z,61.42
2023-07-20T21:21:20.489Z,60.77
2023-07-20T21:23:22.323Z,61.15
2023-07-20T21:25:23.849Z,60.87
2023-07-20T21:27:25.297Z,61.39
2023-07-20T21:29:26.853Z,63.93
2023-07-20T21:31:28.279Z,64.17
2023-07-20T21:33:29.743Z,63.89
2023-07-20T21:35:31.608Z,63.09
2023-07-20T21:37:33.034Z,63.45
2023-07-20T21:39:34.533Z,63.05
2023-07-20T21:41:35.997Z,60.88
2023-07-20T21:43:37.520Z,61.54
2023-07-20T21:45:40.891Z,61.92
2023-07-20T21:47:42.460Z,62.90
2023-07-20T21:49:43.928Z,60.09
2023-07-20T21:51:45.429Z,60.81
2023-07-20T21:53:46.927Z,63.22
2023-07-20T21:55:51.480Z,63.49
2023-07-20T21:57:53.023Z,63.04
2023-07-20T21:59:54.605Z,61.07
2023-07-20T22:02:00.160Z,62.07
2023-07-20T22:04:02.141Z,61.93
2023-07-20T22:06:04.179Z,61.53
2023-07-20T22:08:05.604Z,60.66
2023-07-20T22:10:07.759Z,62.57
2023-07-20T22:12:11.726Z,64.20
